Time;durP1;ratioP1;P1;durP2;ratioP2;P2;SDS_P1;SDS_P2;PMS_P1;PMS_P2;Temp;Humidity;BMP_temperature;BMP_pressure;BME280_temperature;BME280_humidity;BME280_pressure;Samples;Min_cycle;Max_cycle;Signal;HPM_P1;HPM_P2
2023/08/16 00:01:38;;;;;;;5.95;4.55;;;28.40;48.00;;;;;;5056066;28;20055;-69
2023/08/16 00:04:04;;;;;;;10.02;5.32;;;28.40;48.00;;;;;;5072631;28;20037;-69
2023/08/16 00:06:30;;;;;;;6.25;4.18;;;28.30;48.00;;;;;;5069685;28;20040;-68
2023/08/16 00:08:58;;;;;;;5.30;4.35;;;28.30;48.00;;;;;;5069370;28;20495;-69
2023/08/16 00:11:29;;;;;;;5.55;4.35;;;28.30;48.00;;;;;;5058297;28;20037;-69
2023/08/16 00:13:55;;;;;;;7.70;4.50;;;28.30;48.00;;;;;;5052402;28;20097;-68
2023/08/16 00:16:23;;;;;;;12.30;4.57;;;28.10;48.00;;;;;;5060624;28;20035;-69
2023/08/16 00:18:50;;;;;;;5.63;4.32;;;28.20;48.10;;;;;;5069033;28;20021;-69
2023/08/16 00:21:17;;;;;;;6.50;4.22;;;28.20;48.10;;;;;;5050509;28;20033;-69
2023/08/16 00:23:43;;;;;;;5.32;3.97;;;28.20;48.10;;;;;;5032464;28;20126;-68
2023/08/16 00:26:09;;;;;;;9.13;4.22;;;28.20;48.10;;;;;;5036639;28;20083;-69
2023/08/16 00:28:35;;;;;;;8.77;4.13;;;28.20;48.20;;;;;;5064451;28;20036;-69
2023/08/16 00:31:01;;;;;;;5.40;3.85;;;28.30;48.20;;;;;;5064374;28;20039;-69
2023/08/16 00:33:27;;;;;;;8.40;4.57;;;28.20;48.20;;;;;;5067330;28;20028;-68
2023/08/16 00:35:53;;;;;;;8.65;4.60;;;28.30;48.30;;;;;;5069744;28;20051;-69
2023/08/16 00:38:19;;;;;;;8.90;4.10;;;28.20;48.30;;;;;;5031802;28;20497;-69
2023/08/16 00:40:49;;;;;;;4.82;4.40;;;28.20;48.30;;;;;;5050034;28;20056;-69
2023/08/16 00:43:16;;;;;;;5.63;4.38;;;28.20;48.40;;;;;;5055800;28;20048;-68
2023/08/16 00:45:43;;;;;;;6.45;3.85;;;28.20;48.40;;;;;;5063194;28;20071;-69
2023/08/16 00:48:09;;;;;;;4.60;3.92;;;28.30;48.40;;;;;;5038485;28;20115;-68
2023/08/16 00:50:36;;;;;;;4.47;4.07;;;28.50;48.40;;;;;;5058193;28;20032;-68
2023/08/16 00:53:02;;;;;;;4.38;3.97;;;28.20;48.40;;;;;;5058590;28;20041;-68
2023/08/16 00:55:29;;;;;;;10.48;4.70;;;28.40;48.40;;;;;;5069781;28;20043;-68
2023/08/16 00:57:55;;;;;;;4.88;4.30;;;28.20;48.40;;;;;;5034883;28;20037;-69
2023/08/16 01:00:21;;;;;;;7.72;4.55;;;28.30;48.40;;;;;;5065290;28;22110;-69
2023/08/16 01:02:47;;;;;;;4.78;3.65;;;28.10;48.40;;;;;;5056209;28;20111;-69
2023/08/16 01:05:15;;;;;;;3.35;3.00;;;28.30;48.50;;;;;;5051277;28;20407;-69
2023/08/16 01:07:41;;;;;;;3.35;2.67;;;28.30;48.50;;;;;;5051926;28;20523;-69
2023/08/16 01:10:08;;;;;;;3.22;2.92;;;28.30;48.50;;;;;;5034997;28;20693;-69
2023/08/16 01:12:41;;;;;;;3.05;2.75;;;28.10;48.50;;;;;;5062064;28;20125;-69
2023/08/16 01:15:11;;;;;;;3.85;3.15;;;28.10;48.60;;;;;;5069455;28;20052;-69
2023/08/16 01:17:40;;;;;;;4.15;3.35;;;28.20;48.60;;;;;;5039387;28;20032;-69
2023/08/16 01:20:07;;;;;;;3.47;3.17;;;28.10;48.60;;;;;;5071260;28;20076;-68
2023/08/16 01:23:06;;;;;;;5.10;3.60;;;28.10;48.60;;;;;;5040378;28;20040;-69
2023/08/16 01:25:49;;;;;;;3.35;2.85;;;28.10;48.70;;;;;;5050423;28;20053;-69
2023/08/16 01:28:17;;;;;;;2.97;2.70;;;28.10;48.70;;;;;;5044362;28;20480;-68
2023/08/16 01:30:45;;;;;;;4.35;3.13;;;28.10;48.70;;;;;;5065681;28;20052;-69
2023/08/16 01:33:13;;;;;;;5.78;3.42;;;28.20;48.80;;;;;;5061460;28;20132;-68
2023/08/16 01:35:39;;;;;;;3.17;2.88;;;28.20;48.80;;;;;;5051291;28;20056;-69
2023/08/16 01:38:09;;;;;;;3.40;3.10;;;28.20;48.80;;;;;;5051851;28;20131;-68
2023/08/16 01:40:49;;;;;;;3.17;2.72;;;28.20;48.80;;;;;;5061632;28;20410;-69
2023/08/16 01:43:17;;;;;;;3.22;2.92;;;28.20;48.80;;;;;;5055761;28;20048;-68
2023/08/16 01:45:44;;;;;;;8.73;4.38;;;28.20;48.80;;;;;;5049105;28;20032;-69
2023/08/16 01:48:11;;;;;;;8.32;4.65;;;28.10;48.90;;;;;;5068154;28;20510;-69
2023/08/16 01:50:38;;;;;;;8.55;4.63;;;28.20;48.80;;;;;;5037727;28;20060;-68
2023/08/16 01:53:04;;;;;;;4.72;3.92;;;28.20;48.80;;;;;;5035485;28;20415;-68
2023/08/16 01:55:30;;;;;;;5.43;3.72;;;28.10;48.80;;;;;;5070778;28;20043;-69
2023/08/16 01:57:57;;;;;;;3.13;2.78;;;28.00;48.80;;;;;;5052758;28;20044;-69
2023/08/16 02:00:23;;;;;;;2.63;2.42;;;28.20;48.90;;;;;;5049308;28;20037;-69
2023/08/16 02:02:50;;;;;;;2.70;2.50;;;28.10;48.90;;;;;;5065557;28;20036;-68
2023/08/16 02:05:16;;;;;;;4.80;3.05;;;28.20;48.90;;;;;;5069414;28;20036;-69
2023/08/16 02:07:43;;;;;;;3.55;3.25;;;28.10;48.90;;;;;;5052862;28;20034;-69
2023/08/16 02:10:09;;;;;;;3.45;3.15;;;28.10;48.90;;;;;;5033815;28;20033;-69
2023/08/16 02:12:35;;;;;;;3.90;2.30;;;28.10;48.90;;;;;;5046907;28;20043;-68
2023/08/16 02:15:02;;;;;;;4.55;2.90;;;28.20;49.00;;;;;;5067030;28;20064;-68
2023/08/16 02:17:28;;;;;;;2.97;2.53;;;28.10;49.10;;;;;;5058963;28;20211;-69
2023/08/16 02:19:55;;;;;;;2.92;2.58;;;28.10;49.10;;;;;;5035003;28;20041;-69
2023/08/16 02:22:21;;;;;;;3.10;2.80;;;28.10;49.10;;;;;;5054934;28;20034;-68
2023/08/16 02:24:47;;;;;;;3.10;2.72;;;28.20;49.20;;;;;;5070428;28;20471;-68
2023/08/16 02:27:13;;;;;;;2.80;2.60;;;28.00;49.20;;;;;;5063546;28;20461;-69
2023/08/16 02:29:39;;;;;;;3.63;2.92;;;28.10;49.30;;;;;;5041781;28;20048;-69
2023/08/16 02:32:05;;;;;;;5.65;3.17;;;28.00;49.40;;;;;;5048613;28;20029;-69
2023/08/16 02:34:53;;;;;;;3.83;2.97;;;28.00;49.30;;;;;;5072951;28;20032;-69
2023/08/16 02:37:19;;;;;;;8.45;4.57;;;27.90;48.80;;;;;;5067643;28;20033;-69
2023/08/16 02:39:45;;;;;;;3.70;3.20;;;27.90;48.80;;;;;;5035168;28;20092;-69
2023/08/16 02:42:11;;;;;;;5.45;3.70;;;28.00;49.30;;;;;;5067036;28;20089;-69
2023/08/16 02:44:38;;;;;;;10.43;5.47;;;28.00;49.40;;;;;;5041041;28;20056;-68
2023/08/16 02:47:04;;;;;;;6.60;4.47;;;28.00;49.40;;;;;;5064940;28;20052;-69
2023/08/16 02:49:30;;;;;;;4.65;3.70;;;28.10;49.40;;;;;;5069989;28;20048;-69
2023/08/16 02:51:56;;;;;;;3.22;2.88;;;28.00;49.40;;;;;;5054869;28;20029;-69
2023/08/16 02:54:22;;;;;;;3.30;3.00;;;28.10;49.40;;;;;;5057185;28;20044;-68
2023/08/16 02:56:48;;;;;;;3.53;2.30;;;28.10;49.50;;;;;;5053911;28;20114;-69
2023/08/16 02:59:14;;;;;;;3.97;2.97;;;28.00;49.50;;;;;;5060159;28;20395;-68
2023/08/16 03:01:41;;;;;;;2.67;2.40;;;28.00;49.50;;;;;;5070899;28;20032;-68
2023/08/16 03:04:07;;;;;;;3.03;2.72;;;28.10;49.60;;;;;;5062929;28;20029;-69
2023/08/16 03:06:33;;;;;;;5.00;2.70;;;28.00;49.50;;;;;;5071772;28;20037;-68
2023/08/16 03:09:00;;;;;;;3.13;2.70;;;28.00;49.60;;;;;;5070763;28;20036;-68
2023/08/16 03:11:26;;;;;;;2.67;2.47;;;28.20;49.60;;;;;;5069160;28;20056;-68
2023/08/16 03:13:52;;;;;;;2.90;2.70;;;28.10;49.60;;;;;;5063022;28;20040;-68
2023/08/16 03:16:19;;;;;;;9.63;4.18;;;28.10;49.60;;;;;;5070898;28;20035;-68
2023/08/16 03:18:45;;;;;;;4.05;3.60;;;28.20;49.60;;;;;;5037928;28;20033;-68
2023/08/16 03:21:12;;;;;;;6.80;4.38;;;28.20;49.60;;;;;;5031930;28;20036;-69
2023/08/16 03:23:38;;;;;;;11.48;4.88;;;28.10;49.60;;;;;;5034134;28;20111;-69
2023/08/16 03:26:04;;;;;;;11.80;5.38;;;28.10;49.60;;;;;;5026142;28;20052;-68
2023/08/16 03:28:30;;;;;;;6.15;4.47;;;28.20;49.60;;;;;;5030710;28;20115;-69
2023/08/16 03:30:57;;;;;;;6.28;4.80;;;28.30;49.70;;;;;;5032480;28;20557;-69
2023/08/16 03:33:23;;;;;;;5.72;4.95;;;28.20;49.70;;;;;;5030724;28;20120;-69
2023/08/16 03:35:52;;;;;;;4.93;4.50;;;28.30;49.70;;;;;;5047838;28;20041;-68
2023/08/16 03:38:18;;;;;;;7.25;5.15;;;28.40;49.70;;;;;;5046957;28;20080;-69
2023/08/16 03:40:44;;;;;;;6.95;4.40;;;28.30;49.70;;;;;;5032557;28;20407;-68
2023/08/16 03:43:11;;;;;;;7.05;4.93;;;28.30;49.70;;;;;;5027877;28;20064;-69
2023/08/16 03:45:55;;;;;;;6.95;4.80;;;28.30;49.70;;;;;;5000844;28;20033;-69
2023/08/16 03:48:21;;;;;;;4.95;4.00;;;28.40;49.70;;;;;;5048866;28;20099;-69
2023/08/16 03:50:47;;;;;;;4.30;3.90;;;28.40;49.70;;;;;;5050062;28;20029;-69
2023/08/16 03:53:13;;;;;;;2.85;2.65;;;28.40;49.70;;;;;;5021781;28;20163;-68
2023/08/16 03:55:40;;;;;;;2.75;2.33;;;28.30;49.70;;;;;;5016802;28;20444;-69
2023/08/16 03:58:06;;;;;;;2.20;2.10;;;28.40;49.70;;;;;;5046556;28;20043;-70
2023/08/16 04:00:32;;;;;;;5.03;4.20;;;28.40;49.70;;;;;;5036703;28;20108;-69
2023/08/16 04:02:58;;;;;;;2.55;2.35;;;28.40;49.70;;;;;;5068232;28;20136;-68
2023/08/16 04:05:24;;;;;;;3.70;2.63;;;28.50;49.70;;;;;;5070224;28;20470;-68
2023/08/16 04:07:50;;;;;;;2.80;2.60;;;28.40;49.70;;;;;;5070999;28;20055;-69
2023/08/16 04:10:17;;;;;;;3.67;2.72;;;28.40;49.70;;;;;;5047617;28;20078;-69
2023/08/16 04:12:42;;;;;;;2.78;2.55;;;28.30;49.70;;;;;;5054359;28;20397;-69
2023/08/16 04:15:09;;;;;;;3.22;2.92;;;28.40;49.70;;;;;;5050845;28;20040;-69
2023/08/16 04:17:36;;;;;;;4.05;2.92;;;28.40;49.70;;;;;;5032315;28;20034;-69
2023/08/16 04:20:05;;;;;;;8.32;5.45;;;28.60;49.70;;;;;;5043789;28;20033;-69
2023/08/16 04:22:32;;;;;;;4.28;2.78;;;28.40;49.70;;;;;;5050436;28;20037;-69
2023/08/16 04:24:59;;;;;;;9.35;4.95;;;28.40;49.70;;;;;;5064598;28;20047;-69
2023/08/16 04:27:26;;;;;;;9.80;6.40;;;28.40;49.70;;;;;;5070849;28;20049;-69
2023/08/16 04:29:52;;;;;;;2.70;2.50;;;28.40;49.70;;;;;;5030846;28;20037;-69
2023/08/16 04:32:18;;;;;;;2.90;2.70;;;28.40;49.70;;;;;;5030571;28;20036;-69
2023/08/16 04:34:44;;;;;;;3.65;3.15;;;28.30;49.70;;;;;;5065941;28;20166;-70
2023/08/16 04:37:10;;;;;;;3.00;2.58;;;28.40;49.70;;;;;;5059181;28;20500;-69
2023/08/16 04:39:36;;;;;;;3.33;2.88;;;28.30;49.70;;;;;;5070111;28;20077;-69
2023/08/16 04:42:02;;;;;;;4.40;3.38;;;28.50;49.70;;;;;;5047798;28;20037;-69
2023/08/16 04:44:28;;;;;;;3.63;2.55;;;28.40;49.70;;;;;;5054266;28;20033;-69
2023/08/16 04:46:55;;;;;;;2.55;2.35;;;28.30;49.80;;;;;;5062726;28;20048;-69
2023/08/16 04:49:22;;;;;;;3.10;2.42;;;28.30;49.80;;;;;;5051738;28;20434;-69
2023/08/16 04:51:48;;;;;;;10.95;5.55;;;28.30;49.80;;;;;;5059499;28;20041;-69
2023/08/16 04:54:14;;;;;;;11.02;5.32;;;28.50;49.80;;;;;;5059616;28;20036;-70
2023/08/16 04:56:40;;;;;;;4.28;3.28;;;28.40;49.80;;;;;;5032929;28;20029;-69
2023/08/16 04:59:06;;;;;;;3.08;2.50;;;28.50;49.80;;;;;;5040753;28;20113;-69
2023/08/16 05:01:32;;;;;;;2.80;2.50;;;28.30;49.80;;;;;;5066893;28;20103;-69
2023/08/16 05:03:59;;;;;;;3.60;2.88;;;28.30;49.80;;;;;;5033373;28;20126;-68
2023/08/16 05:06:26;;;;;;;5.28;3.28;;;28.40;49.80;;;;;;5013206;28;20060;-69
2023/08/16 05:08:52;;;;;;;9.73;4.85;;;28.30;49.80;;;;;;5029862;28;20127;-69
2023/08/16 05:11:18;;;;;;;2.75;2.50;;;28.40;49.80;;;;;;5051434;28;20036;-69
2023/08/16 05:13:45;;;;;;;2.85;2.50;;;28.30;49.80;;;;;;5056994;28;20064;-70
2023/08/16 05:16:12;;;;;;;5.65;3.38;;;28.50;49.80;;;;;;5055663;28;20111;-69
2023/08/16 05:18:38;;;;;;;3.10;2.80;;;28.40;49.80;;;;;;5067223;28;20524;-69
2023/08/16 05:21:07;;;;;;;6.18;3.53;;;28.40;49.70;;;;;;5053832;28;20033;-69
2023/08/16 05:23:36;;;;;;;3.05;2.75;;;28.40;49.80;;;;;;5040877;28;20036;-69
2023/08/16 05:26:02;;;;;;;2.58;2.38;;;28.50;49.80;;;;;;5048363;28;20064;-69
2023/08/16 05:28:28;;;;;;;4.57;2.88;;;28.50;49.70;;;;;;5051466;28;20048;-69
2023/08/16 05:30:55;;;;;;;2.95;2.67;;;28.30;49.80;;;;;;5043724;28;20057;-69
2023/08/16 05:33:21;;;;;;;2.75;2.40;;;28.30;49.80;;;;;;5030912;28;20432;-69
2023/08/16 05:35:47;;;;;;;8.32;4.45;;;28.30;49.80;;;;;;5030565;28;20029;-69
2023/08/16 05:38:13;;;;;;;7.53;3.92;;;28.30;49.80;;;;;;5013451;28;20044;-69
2023/08/16 05:40:39;;;;;;;4.68;4.00;;;28.30;49.80;;;;;;5035554;28;20040;-69
2023/08/16 05:43:05;;;;;;;4.15;3.47;;;28.30;49.80;;;;;;5068418;28;20387;-69
2023/08/16 05:45:31;;;;;;;6.95;5.45;;;28.30;49.90;;;;;;5044147;28;20041;-69
2023/08/16 05:47:57;;;;;;;2.90;2.63;;;28.30;49.80;;;;;;5031453;28;20046;-69
2023/08/16 05:50:23;;;;;;;7.63;4.50;;;28.40;49.90;;;;;;5041618;28;20060;-69
2023/08/16 05:52:49;;;;;;;3.13;2.90;;;28.30;49.90;;;;;;5046839;28;20032;-66
2023/08/16 05:55:15;;;;;;;7.40;3.38;;;28.30;49.90;;;;;;5054286;28;20489;-64
2023/08/16 05:57:42;;;;;;;6.40;3.03;;;28.40;50.20;;;;;;5064192;28;20032;-66
2023/08/16 06:00:08;;;;;;;7.65;3.47;;;28.30;50.10;;;;;;5075593;28;20404;-65
2023/08/16 06:02:39;;;;;;;3.83;3.53;;;28.30;49.90;;;;;;5042236;28;20029;-66
2023/08/16 06:05:06;;;;;;;5.70;4.00;;;28.50;50.20;;;;;;5043922;28;20025;-66
2023/08/16 06:07:32;;;;;;;6.78;4.60;;;28.40;50.80;;;;;;5065457;28;20084;-66
2023/08/16 06:09:58;;;;;;;4.97;4.53;;;28.50;51.80;;;;;;5068589;28;20056;-67
2023/08/16 06:12:24;;;;;;;5.03;4.40;;;28.60;50.40;;;;;;5065299;28;20368;-66
2023/08/16 06:14:50;;;;;;;5.65;4.28;;;28.60;50.20;;;;;;5050438;28;20117;-66
2023/08/16 06:17:16;;;;;;;5.10;4.13;;;28.50;50.00;;;;;;5068796;28;20043;-66
2023/08/16 06:19:42;;;;;;;15.13;7.18;;;28.70;50.00;;;;;;5069318;28;20028;-67
2023/08/16 06:22:08;;;;;;;5.63;4.53;;;28.60;51.90;;;;;;5035589;28;20041;-66
2023/08/16 06:24:37;;;;;;;7.80;5.68;;;28.70;50.90;;;;;;5051115;28;20116;-67
2023/08/16 06:27:04;;;;;;;8.13;5.65;;;28.70;50.90;;;;;;5072947;28;20078;-66
2023/08/16 06:29:30;;;;;;;5.45;4.63;;;28.60;50.40;;;;;;5051859;28;20028;-66
2023/08/16 06:31:56;;;;;;;5.82;4.93;;;28.70;50.30;;;;;;5044347;28;20063;-66
2023/08/16 06:34:24;;;;;;;8.88;4.45;;;28.60;50.90;;;;;;5047416;28;20072;-65
2023/08/16 06:36:50;;;;;;;7.03;5.45;;;28.60;51.10;;;;;;5043278;28;20036;-67
2023/08/16 06:39:17;;;;;;;11.27;5.03;;;28.70;51.10;;;;;;5087386;28;20044;-67
2023/08/16 06:41:43;;;;;;;6.88;4.97;;;28.60;50.80;;;;;;5063015;28;20408;-66
2023/08/16 06:44:09;;;;;;;7.15;4.97;;;28.60;50.60;;;;;;5059171;28;20044;-66
2023/08/16 06:46:35;;;;;;;5.78;4.60;;;28.60;50.60;;;;;;5052082;28;20055;-67
2023/08/16 06:49:01;;;;;;;5.03;4.35;;;28.60;50.40;;;;;;5063873;28;20476;-65
2023/08/16 06:51:27;;;;;;;7.93;4.63;;;28.60;50.20;;;;;;5051691;28;20041;-67
2023/08/16 06:53:53;;;;;;;7.18;4.93;;;28.60;50.00;;;;;;5066053;28;20106;-66
2023/08/16 06:56:19;;;;;;;8.05;4.80;;;28.80;49.70;;;;;;5071315;28;20036;-66
2023/08/16 06:58:45;;;;;;;7.68;5.32;;;28.70;49.40;;;;;;5055838;28;20089;-66
2023/08/16 07:01:11;;;;;;;9.35;5.85;;;28.80;49.50;;;;;;5053018;28;20025;-67
2023/08/16 07:03:37;;;;;;;6.80;5.07;;;28.90;49.40;;;;;;5045092;28;20090;-66
2023/08/16 07:06:04;;;;;;;6.85;4.75;;;28.90;49.40;;;;;;5047494;28;20481;-68
2023/08/16 07:08:30;;;;;;;8.40;4.88;;;28.90;49.40;;;;;;5049665;28;20052;-69
2023/08/16 07:10:56;;;;;;;5.70;4.68;;;28.90;49.50;;;;;;5048191;28;20034;-66
2023/08/16 07:13:22;;;;;;;13.57;4.72;;;28.90;49.50;;;;;;5055915;28;20036;-66
2023/08/16 07:15:48;;;;;;;14.82;9.68;;;28.90;49.70;;;;;;5057638;28;20570;-67
2023/08/16 07:18:14;;;;;;;10.55;6.32;;;28.90;49.70;;;;;;5068375;28;20035;-67
2023/08/16 07:20:40;;;;;;;8.25;5.95;;;28.90;49.70;;;;;;5070724;28;20040;-66
2023/08/16 07:23:06;;;;;;;6.85;5.78;;;29.00;50.30;;;;;;5068150;28;20043;-64
2023/08/16 07:25:33;;;;;;;8.00;5.88;;;28.90;49.80;;;;;;5068624;28;20036;-66
2023/08/16 07:27:59;;;;;;;7.57;5.32;;;29.00;50.40;;;;;;5065713;28;20180;-66
2023/08/16 07:30:25;;;;;;;8.55;6.10;;;28.90;49.80;;;;;;5067016;28;20033;-67
2023/08/16 07:32:51;;;;;;;9.68;5.53;;;28.90;49.50;;;;;;5052791;28;20128;-70
2023/08/16 07:35:17;;;;;;;7.85;5.18;;;28.90;49.50;;;;;;5052412;28;20035;-66
2023/08/16 07:37:43;;;;;;;8.75;5.53;;;28.80;50.00;;;;;;5056326;28;20156;-64
2023/08/16 07:40:10;;;;;;;6.03;4.93;;;28.80;50.20;;;;;;5032656;28;20116;-65
2023/08/16 07:42:37;;;;;;;7.50;6.18;;;28.80;50.10;;;;;;5054812;28;20481;-65
2023/08/16 07:45:05;;;;;;;10.00;5.80;;;28.90;50.00;;;;;;5064900;28;20033;-64
2023/08/16 07:47:32;;;;;;;7.65;4.90;;;28.90;49.80;;;;;;5057329;28;20056;-65
2023/08/16 07:49:58;;;;;;;10.45;4.57;;;28.80;49.70;;;;;;5069119;28;20783;-64
2023/08/16 07:52:24;;;;;;;8.23;4.95;;;28.80;49.80;;;;;;5072549;28;20043;-64
2023/08/16 07:54:50;;;;;;;7.28;5.22;;;28.80;49.70;;;;;;5067432;28;20532;-64
2023/08/16 07:57:16;;;;;;;6.22;5.63;;;28.80;49.90;;;;;;5056993;28;20066;-63
2023/08/16 07:59:43;;;;;;;8.10;5.97;;;28.80;49.90;;;;;;5069979;28;20036;-63
2023/08/16 08:02:09;;;;;;;7.40;5.10;;;28.80;49.90;;;;;;5043253;28;20121;-67
2023/08/16 08:04:36;;;;;;;6.38;4.78;;;28.80;49.90;;;;;;5032230;28;20032;-66
2023/08/16 08:07:03;;;;;;;9.25;5.30;;;28.80;50.00;;;;;;5032796;28;20308;-67
2023/08/16 08:09:30;;;;;;;4.80;4.10;;;28.80;50.00;;;;;;5032046;28;20426;-67
2023/08/16 08:11:57;;;;;;;7.18;5.22;;;28.80;50.00;;;;;;5058241;28;20483;-66
2023/08/16 08:14:23;;;;;;;9.70;5.57;;;28.80;49.90;;;;;;5066584;28;20040;-66
2023/08/16 08:16:49;;;;;;;6.45;5.13;;;28.80;49.70;;;;;;5051923;28;20404;-65
2023/08/16 08:19:15;;;;;;;5.82;4.85;;;28.80;52.80;;;;;;5072365;28;20028;-66
2023/08/16 08:21:41;;;;;;;15.32;8.40;;;28.90;52.40;;;;;;5060425;28;20029;-66
2023/08/16 08:24:07;;;;;;;5.68;4.70;;;29.10;52.60;;;;;;5049448;28;20025;-67
2023/08/16 08:26:35;;;;;;;5.95;4.57;;;29.00;51.50;;;;;;5065062;28;20119;-65
2023/08/16 08:29:01;;;;;;;5.53;4.82;;;29.00;51.20;;;;;;5047364;28;20056;-63
2023/08/16 08:31:27;;;;;;;7.05;5.32;;;28.90;50.60;;;;;;5045132;28;20036;-67
2023/08/16 08:33:53;;;;;;;8.10;4.57;;;28.90;50.50;;;;;;5053258;28;20037;-67
2023/08/16 08:36:20;;;;;;;5.15;4.25;;;29.00;51.00;;;;;;5049782;28;20037;-67
2023/08/16 08:38:46;;;;;;;8.63;4.72;;;29.00;50.90;;;;;;5047166;28;20023;-68
2023/08/16 08:41:12;;;;;;;7.15;4.35;;;29.00;50.80;;;;;;5047219;28;20029;-64
2023/08/16 08:43:41;;;;;;;6.60;5.03;;;29.00;50.80;;;;;;5051152;28;20036;-62
2023/08/16 08:46:07;;;;;;;5.68;4.95;;;29.10;50.30;;;;;;5048675;28;20061;-64
2023/08/16 08:48:36;;;;;;;7.45;5.28;;;29.00;50.00;;;;;;5050509;28;20049;-67
2023/08/16 08:51:02;;;;;;;7.70;5.32;;;29.00;50.00;;;;;;5048796;28;20457;-68
2023/08/16 08:53:28;;;;;;;12.15;5.82;;;28.70;49.20;;;;;;5043825;28;20064;-65
2023/08/16 08:55:56;;;;;;;4.80;4.30;;;29.00;49.80;;;;;;5031146;28;20437;-65
2023/08/16 08:58:24;;;;;;;6.78;5.05;;;29.00;49.90;;;;;;5052865;28;20048;-66
2023/08/16 09:00:51;;;;;;;7.05;4.50;;;28.90;49.70;;;;;;5049158;28;20025;-66
2023/08/16 09:03:20;;;;;;;6.38;4.75;;;28.80;50.00;;;;;;5049590;28;20112;-66
2023/08/16 09:05:50;;;;;;;6.88;5.03;;;29.00;50.80;;;;;;5068301;28;20095;-66
2023/08/16 09:08:17;;;;;;;4.70;4.20;;;28.90;50.20;;;;;;5068324;28;20048;-66
2023/08/16 09:10:43;;;;;;;5.95;4.40;;;28.80;50.50;;;;;;5070786;28;20041;-69
2023/08/16 09:13:12;;;;;;;6.55;4.28;;;28.90;50.40;;;;;;5034660;28;20052;-69
2023/08/16 09:15:39;;;;;;;7.15;4.65;;;28.90;50.40;;;;;;5037728;28;20025;-68
2023/08/16 09:18:07;;;;;;;5.00;4.32;;;28.90;50.60;;;;;;5047189;28;20033;-68
2023/08/16 09:20:32;;;;;;;4.82;4.20;;;28.90;50.70;;;;;;5043095;28;20473;-70
2023/08/16 09:22:59;;;;;;;7.05;5.32;;;28.90;50.90;;;;;;5049686;28;20028;-68
2023/08/16 09:25:26;;;;;;;6.05;4.43;;;28.90;51.00;;;;;;5062013;28;20033;-69
2023/08/16 09:27:52;;;;;;;5.25;4.75;;;29.00;51.60;;;;;;5047338;28;20057;-67
2023/08/16 09:30:18;;;;;;;5.78;4.38;;;28.90;51.10;;;;;;5043320;28;20036;-68
2023/08/16 09:32:45;;;;;;;6.63;5.07;;;28.90;51.20;;;;;;5053017;28;20025;-68
2023/08/16 09:35:16;;;;;;;6.43;4.25;;;28.90;51.40;;;;;;5044196;28;20464;-68
2023/08/16 09:37:43;;;;;;;4.55;4.15;;;29.00;52.00;;;;;;5029176;28;20041;-67
2023/08/16 09:40:15;;;;;;;4.88;4.38;;;28.90;51.40;;;;;;5030832;28;20037;-68
2023/08/16 09:42:41;;;;;;;4.85;4.35;;;28.90;51.20;;;;;;5057568;28;20063;-69
2023/08/16 09:45:07;;;;;;;4.80;4.30;;;29.00;51.70;;;;;;5050226;28;20115;-69
2023/08/16 09:47:44;;;;;;;5.13;4.43;;;28.90;51.00;;;;;;5070305;28;20055;-68
2023/08/16 09:50:17;;;;;;;5.78;4.15;;;28.90;50.90;;;;;;5060335;28;20049;-68
2023/08/16 09:52:43;;;;;;;5.60;4.60;;;29.10;51.30;;;;;;5040376;28;20021;-68
2023/08/16 09:55:10;;;;;;;5.20;4.18;;;28.90;50.60;;;;;;5056005;28;20119;-68
2023/08/16 09:57:37;;;;;;;6.07;4.43;;;29.00;51.50;;;;;;5069068;28;20072;-68
2023/08/16 10:00:06;;;;;;;4.50;4.00;;;29.00;51.40;;;;;;5047068;28;20032;-68
2023/08/16 10:02:40;;;;;;;5.50;4.20;;;28.90;50.80;;;;;;5059665;28;20361;-69
2023/08/16 10:05:07;;;;;;;6.22;4.18;;;28.80;50.80;;;;;;5070191;28;20035;-68
2023/08/16 10:07:33;;;;;;;4.78;3.97;;;28.80;50.90;;;;;;5062765;28;20429;-68
2023/08/16 10:09:59;;;;;;;4.55;3.88;;;28.90;51.00;;;;;;5062420;28;20037;-67
2023/08/16 10:12:27;;;;;;;4.40;3.95;;;28.80;51.00;;;;;;5063360;28;20048;-67
2023/08/16 10:14:53;;;;;;;6.20;4.50;;;28.80;51.00;;;;;;5049090;28;20124;-68
2023/08/16 10:17:21;;;;;;;5.65;4.15;;;28.90;51.10;;;;;;5042963;28;20370;-68
2023/08/16 10:19:57;;;;;;;4.78;4.38;;;28.80;51.10;;;;;;5070166;28;20111;-68
2023/08/16 10:22:27;;;;;;;5.35;4.45;;;28.80;51.10;;;;;;5062239;28;20033;-68
2023/08/16 10:24:55;;;;;;;5.15;4.65;;;28.80;53.00;;;;;;5050066;28;20040;-69
2023/08/16 10:27:23;;;;;;;28.63;7.65;;;29.00;53.30;;;;;;5031794;28;20049;-66
2023/08/16 10:29:54;;;;;;;5.28;4.78;;;29.00;53.80;;;;;;5042092;28;20045;-66
2023/08/16 10:32:24;;;;;;;6.32;5.07;;;29.00;56.50;;;;;;5056639;28;20086;-67
2023/08/16 10:34:54;;;;;;;7.15;4.47;;;29.00;55.80;;;;;;5067913;28;20073;-66
2023/08/16 10:37:21;;;;;;;4.80;4.18;;;29.10;52.90;;;;;;5060035;28;20040;-69
2023/08/16 10:39:50;;;;;;;7.00;4.15;;;29.20;53.50;;;;;;5042443;28;20025;-67
2023/08/16 10:42:16;;;;;;;5.45;4.28;;;29.00;53.40;;;;;;5061556;28;20028;-66
2023/08/16 10:44:52;;;;;;;3.80;3.45;;;29.10;53.20;;;;;;5060727;28;20041;-66
2023/08/16 10:47:29;;;;;;;6.05;4.72;;;29.10;54.60;;;;;;5060511;28;20101;-67
2023/08/16 10:49:55;;;;;;;6.47;3.92;;;29.10;57.50;;;;;;5046342;28;20489;-66
2023/08/16 10:52:30;;;;;;;4.13;3.72;;;29.10;58.60;;;;;;5067312;28;20082;-66
2023/08/16 10:54:59;;;;;;;5.18;4.78;;;29.20;60.00;;;;;;5050982;28;20033;-68
2023/08/16 10:57:26;;;;;;;4.32;3.47;;;29.10;61.00;;;;;;5086402;28;20507;-70
2023/08/16 11:00:03;;;;;;;7.03;4.63;;;29.30;61.50;;;;;;5063352;28;20053;-66
2023/08/16 11:02:31;;;;;;;5.22;4.30;;;29.30;57.60;;;;;;5046876;28;20025;-66
2023/08/16 11:05:01;;;;;;;16.92;6.15;;;29.30;54.70;;;;;;5059504;28;20043;-66
2023/08/16 11:07:28;;;;;;;4.55;4.15;;;29.40;55.00;;;;;;5065376;28;20120;-67
2023/08/16 11:10:00;;;;;;;6.28;4.80;;;29.60;54.70;;;;;;5073346;28;20539;-66
2023/08/16 11:12:30;;;;;;;6.57;4.53;;;29.70;52.30;;;;;;5063442;28;20056;-72
2023/08/16 11:14:57;;;;;;;6.13;4.72;;;29.70;52.20;;;;;;5066281;28;20029;-67
2023/08/16 11:17:27;;;;;;;9.35;5.07;;;29.60;52.40;;;;;;5038045;28;20072;-67
2023/08/16 11:19:54;;;;;;;5.05;4.55;;;29.70;53.10;;;;;;5073178;28;20137;-67
2023/08/16 11:22:24;;;;;;;5.88;4.85;;;29.60;53.10;;;;;;5062671;28;20433;-67
2023/08/16 11:24:50;;;;;;;9.30;5.68;;;29.80;53.30;;;;;;5072946;28;20061;-68
2023/08/16 11:27:23;;;;;;;4.93;4.50;;;29.70;53.50;;;;;;5065211;28;20071;-68
2023/08/16 11:29:54;;;;;;;6.30;4.78;;;29.70;53.50;;;;;;5056201;28;20024;-67
2023/08/16 11:32:35;;;;;;;5.32;4.22;;;29.70;53.10;;;;;;5027066;28;20049;-67
2023/08/16 11:35:09;;;;;;;5.80;4.43;;;29.70;52.00;;;;;;5030962;28;20492;-68
2023/08/16 11:37:36;;;;;;;5.30;4.82;;;29.70;49.10;;;;;;5028415;28;20436;-68
2023/08/16 11:40:07;;;;;;;5.32;4.82;;;29.70;47.50;;;;;;5032724;28;20033;-67
2023/08/16 11:42:33;;;;;;;4.60;4.20;;;29.70;47.20;;;;;;5041997;28;20045;-68
2023/08/16 11:44:59;;;;;;;4.10;3.80;;;29.70;46.40;;;;;;5034821;28;20075;-68
2023/08/16 11:47:25;;;;;;;4.45;3.58;;;29.60;47.00;;;;;;5049768;28;20053;-68
2023/08/16 11:49:51;;;;;;;4.47;4.00;;;29.70;47.00;;;;;;5041653;28;20175;-67
2023/08/16 11:52:24;;;;;;;3.05;2.80;;;29.80;46.90;;;;;;5031776;28;20483;-68
2023/08/16 11:55:07;;;;;;;;;;;29.70;46.60;;;;;;5046550;28;20460;-68
2023/08/16 11:57:42;;;;;;;5.07;4.00;;;29.70;46.30;;;;;;5046518;28;20331;-68
2023/08/16 12:00:09;;;;;;;5.07;4.15;;;29.60;45.90;;;;;;5020685;28;20043;-68
2023/08/16 12:02:36;;;;;;;4.20;3.78;;;29.60;45.90;;;;;;5034326;28;20048;-67
2023/08/16 12:05:10;;;;;;;3.20;2.90;;;29.60;45.80;;;;;;5042724;28;20481;-67
2023/08/16 12:07:48;;;;;;;3.90;3.60;;;29.60;45.90;;;;;;5058388;28;20040;-67
2023/08/16 12:10:24;;;;;;;4.32;3.35;;;29.50;45.50;;;;;;5053362;28;20044;-67
2023/08/16 12:12:52;;;;;;;3.97;3.35;;;29.50;45.50;;;;;;5056016;28;20475;-68
2023/08/16 12:15:23;;;;;;;6.30;3.72;;;29.50;45.50;;;;;;5064276;28;20034;-67
2023/08/16 12:17:51;;;;;;;4.70;3.75;;;29.50;45.10;;;;;;5059104;28;20056;-68
2023/08/16 12:20:17;;;;;;;3.67;3.38;;;29.40;45.20;;;;;;5053316;28;20111;-68
2023/08/16 12:22:45;;;;;;;5.40;3.88;;;29.40;45.10;;;;;;5067695;28;20032;-67
2023/08/16 12:25:11;;;;;;;4.00;3.60;;;29.50;44.80;;;;;;5060592;28;20028;-68
2023/08/16 12:27:38;;;;;;;3.88;3.53;;;29.50;44.60;;;;;;5071985;28;20047;-67
2023/08/16 12:30:05;;;;;;;4.82;4.30;;;29.40;44.50;;;;;;5070042;28;20036;-67
2023/08/16 12:32:31;;;;;;;3.38;3.10;;;29.30;44.40;;;;;;5071665;28;20048;-69
2023/08/16 12:34:57;;;;;;;3.70;3.35;;;29.40;44.40;;;;;;5053359;28;20034;-68
2023/08/16 12:37:23;;;;;;;3.50;3.20;;;29.20;44.30;;;;;;5043439;28;20083;-67
2023/08/16 12:39:49;;;;;;;4.00;3.60;;;29.30;44.30;;;;;;5056286;28;20369;-67
2023/08/16 12:42:15;;;;;;;3.15;2.95;;;29.30;44.30;;;;;;5064930;28;20032;-68
2023/08/16 12:44:41;;;;;;;4.00;3.63;;;29.30;44.40;;;;;;5063156;28;20037;-69
2023/08/16 12:47:08;;;;;;;4.20;3.50;;;29.30;44.40;;;;;;5052331;28;20041;-67